KILG/ILG METAR and TAF weather

Enter ICAO airport designator
Station Type Date Time Source
KILG METAR 2021/08/04 19:51 UTC NOAA

KILG 041951Z AUTO 10009KT 10SM CLR 26/14 A3009 RMK AO2 SLP190 T02560139


Station Type Date Time Source
KILG Decoded METAR 2021/08/04 19:51 UTC NOAA

WILMINGTON NEW CASTLE CO, DE, United States (KILG) 39-40N 075-36W 28M
Aug 04, 2021 - 03:51 PM EDT / 2021.08.04 1951 UTC
Wind: from the E (100 degrees) at 10 MPH (9 KT):0
Visibility: 10 mile(s):0
Sky conditions: clear
Temperature: 78.1 F (25.6 C)
Dew Point: 57.0 F (13.9 C)
Relative Humidity: 48%
Pressure (altimeter): 30.09 in. Hg (1018 hPa)
ob: KILG 041951Z AUTO 10009KT 10SM CLR 26/14 A3009 RMK AO2 SLP190 T02560139
cycle: 20

Station Type Date Time Source
KILG TAF 2021/08/04 18:22 UTC NOAA

TAF KILG 041720Z 0418/0518 05009KT P6SM FEW060 OVC200
FM050200 VRB04KT P6SM SCT200

Example: see airport list